Time;durP1;ratioP1;P1;durP2;ratioP2;P2;SDS_P1;SDS_P2;PMS_P1;PMS_P2;Temp;Humidity;BMP_temperature;BMP_pressure;BME280_temperature;BME280_humidity;BME280_pressure;Samples;Min_cycle;Max_cycle;Signal;HPM_P1;HPM_P2
2021/03/23 00:01:16;;;;;;;67.82;10.90;;;5.10;1.00;;;;;;5136069;27;20674;-65
2021/03/23 00:03:45;;;;;;;73.22;10.75;;;5.20;1.00;;;;;;5136082;27;20290;-65
2021/03/23 00:06:13;;;;;;;69.03;10.40;;;5.20;1.00;;;;;;5136130;27;20336;-65
2021/03/23 00:08:41;;;;;;;71.40;10.63;;;5.10;1.00;;;;;;5135963;27;20310;-65
2021/03/23 00:11:11;;;;;;;70.57;12.02;;;5.20;1.00;;;;;;5135916;27;20768;-65
2021/03/23 00:13:39;;;;;;;72.50;10.98;;;5.10;1.00;;;;;;5136035;27;20237;-65
2021/03/23 00:16:06;;;;;;;69.60;11.00;;;5.10;1.00;;;;;;5135668;27;20210;-65
2021/03/23 00:18:32;;;;;;;72.00;10.50;;;5.10;1.00;;;;;;5135639;27;20237;-65
2021/03/23 00:20:59;;;;;;;66.93;10.45;;;5.10;1.00;;;;;;5135805;27;20336;-66
2021/03/23 00:23:25;;;;;;;68.90;10.07;;;5.10;1.00;;;;;;5135511;27;20213;-65
2021/03/23 00:25:52;;;;;;;67.78;10.38;;;5.10;1.00;;;;;;5135577;27;20290;-65
2021/03/23 00:28:19;;;;;;;74.95;10.98;;;5.10;1.00;;;;;;5135444;27;20726;-65
2021/03/23 00:30:46;;;;;;;65.35;9.00;;;5.10;1.00;;;;;;5135517;27;20206;-66
2021/03/23 00:33:13;;;;;;;69.47;10.93;;;5.10;1.00;;;;;;5135411;27;20203;-65
2021/03/23 00:35:39;;;;;;;68.60;10.77;;;5.10;1.00;;;;;;5135343;27;20210;-66
2021/03/23 00:38:09;;;;;;;67.95;10.07;;;5.00;1.00;;;;;;5135615;27;20255;-65
2021/03/23 00:40:37;;;;;;;70.20;9.85;;;5.00;1.00;;;;;;5135576;27;20232;-66
2021/03/23 00:43:05;;;;;;;69.13;11.02;;;5.00;1.00;;;;;;5135462;27;20615;-65
2021/03/23 00:45:32;;;;;;;69.03;11.02;;;5.00;1.00;;;;;;5135306;27;20486;-66
2021/03/23 00:48:00;;;;;;;68.95;9.30;;;5.00;1.00;;;;;;5135349;27;20746;-66
2021/03/23 00:50:27;;;;;;;68.72;10.23;;;5.00;1.00;;;;;;5135067;27;20234;-66
2021/03/23 00:52:53;;;;;;;69.28;10.43;;;5.00;1.00;;;;;;5135437;27;20289;-66
2021/03/23 00:55:19;;;;;;;67.50;10.70;;;5.00;1.00;;;;;;5135439;27;20308;-66
2021/03/23 00:57:46;;;;;;;68.95;11.00;;;5.00;1.00;;;;;;5135108;27;20222;-66
2021/03/23 01:00:16;;;;;;;66.63;9.88;;;5.00;1.00;;;;;;5134978;27;20227;-66
2021/03/23 01:02:43;;;;;;;71.80;11.13;;;5.00;1.00;;;;;;5135306;27;20294;-66
2021/03/23 01:05:12;;;;;;;68.47;11.00;;;5.00;1.00;;;;;;5134808;27;20658;-66
2021/03/23 01:07:38;;;;;;;66.03;10.95;;;5.00;1.00;;;;;;5135080;27;20309;-66
2021/03/23 01:10:06;;;;;;;70.25;10.63;;;5.00;1.00;;;;;;5134791;27;20236;-66
2021/03/23 01:12:33;;;;;;;65.90;9.45;;;4.90;1.00;;;;;;5134575;27;20293;-66
2021/03/23 01:14:59;;;;;;;70.97;10.40;;;4.90;1.00;;;;;;5134608;27;20210;-66
2021/03/23 01:17:26;;;;;;;69.53;10.65;;;5.00;1.00;;;;;;5134594;27;20317;-66
2021/03/23 01:19:52;;;;;;;69.55;10.45;;;5.00;1.00;;;;;;5134416;27;20248;-66
2021/03/23 01:22:19;;;;;;;69.18;10.07;;;5.00;1.00;;;;;;5134718;27;20315;-66
2021/03/23 01:24:45;;;;;;;66.60;10.35;;;4.90;1.00;;;;;;5134651;27;20211;-66
2021/03/23 01:27:12;;;;;;;70.38;10.70;;;5.00;1.00;;;;;;5134614;27;20318;-66
2021/03/23 01:29:38;;;;;;;68.80;10.05;;;5.00;1.00;;;;;;5134477;27;20651;-66
2021/03/23 01:32:06;;;;;;;69.97;10.23;;;5.00;1.00;;;;;;5134348;27;20631;-66
2021/03/23 01:34:32;;;;;;;65.25;9.60;;;4.90;1.00;;;;;;5134100;27;20242;-66
2021/03/23 01:36:58;;;;;;;69.38;11.30;;;4.90;1.00;;;;;;5134491;27;20232;-66
2021/03/23 01:39:26;;;;;;;68.55;10.20;;;4.90;1.00;;;;;;5134303;27;20318;-66
2021/03/23 01:41:52;;;;;;;72.57;11.50;;;4.90;1.00;;;;;;5134126;27;20294;-66
2021/03/23 01:44:18;;;;;;;68.20;10.60;;;4.90;1.00;;;;;;5134223;27;20217;-66
2021/03/23 01:46:47;;;;;;;63.67;8.73;;;4.90;1.00;;;;;;5134258;27;20203;-67
2021/03/23 01:49:17;;;;;;;68.25;11.10;;;4.90;1.00;;;;;;5134253;27;20285;-66
2021/03/23 01:51:47;;;;;;;68.68;10.32;;;4.90;1.00;;;;;;5134503;27;20198;-66
2021/03/23 01:54:17;;;;;;;69.50;11.30;;;4.90;1.00;;;;;;5133970;27;20293;-66
2021/03/23 01:56:45;;;;;;;63.75;9.73;;;4.90;1.00;;;;;;5133867;27;20213;-66
2021/03/23 01:59:13;;;;;;;68.63;9.43;;;4.90;1.00;;;;;;5133580;27;20234;-66
2021/03/23 02:01:39;;;;;;;70.53;9.52;;;4.90;1.00;;;;;;5134031;27;20207;-66
2021/03/23 02:04:06;;;;;;;73.05;10.35;;;4.90;1.00;;;;;;5133867;27;20636;-66
2021/03/23 02:06:41;;;;;;;69.80;9.82;;;4.90;1.00;;;;;;5133786;27;20231;-66
2021/03/23 02:09:11;;;;;;;67.05;9.35;;;4.90;1.00;;;;;;5133747;27;20207;-67
2021/03/23 02:11:43;;;;;;;66.68;11.43;;;4.90;1.00;;;;;;5133606;27;20234;-67
2021/03/23 02:14:11;;;;;;;65.72;9.40;;;4.90;1.00;;;;;;5133548;27;20257;-65
2021/03/23 02:16:38;;;;;;;70.45;10.88;;;4.90;1.00;;;;;;5133698;27;20231;-65
2021/03/23 02:19:06;;;;;;;68.68;9.50;;;4.90;1.00;;;;;;5133724;27;20407;-65
2021/03/23 02:21:33;;;;;;;69.90;9.63;;;4.90;1.00;;;;;;5133135;27;20217;-65
2021/03/23 02:24:00;;;;;;;70.18;9.75;;;4.90;1.00;;;;;;5133009;27;20241;-65
2021/03/23 02:26:28;;;;;;;68.25;10.75;;;4.90;1.00;;;;;;5133107;27;20238;-66
2021/03/23 02:28:58;;;;;;;69.90;10.23;;;4.90;1.00;;;;;;5133287;27;20227;-65
2021/03/23 02:31:29;;;;;;;69.97;11.25;;;4.90;1.00;;;;;;5133406;27;20230;-66
2021/03/23 02:33:56;;;;;;;67.18;9.90;;;4.90;1.00;;;;;;5133210;27;20203;-66
2021/03/23 02:36:23;;;;;;;66.82;10.48;;;4.90;1.00;;;;;;5133130;27;20574;-66
2021/03/23 02:38:51;;;;;;;69.32;10.90;;;4.90;1.00;;;;;;5132724;27;20295;-66
2021/03/23 02:41:18;;;;;;;70.00;10.77;;;4.90;1.00;;;;;;5133402;27;20294;-66
2021/03/23 02:43:45;;;;;;;72.00;11.35;;;4.90;1.00;;;;;;5132818;27;20687;-66
2021/03/23 02:46:12;;;;;;;74.05;10.55;;;4.90;1.00;;;;;;5133102;27;20297;-66
2021/03/23 02:48:38;;;;;;;69.05;11.70;;;4.90;1.00;;;;;;5132863;27;20313;-66
2021/03/23 02:51:05;;;;;;;70.00;11.43;;;4.90;1.00;;;;;;5132949;27;20298;-66
2021/03/23 02:53:32;;;;;;;75.60;12.50;;;4.90;1.00;;;;;;5132566;27;20278;-66
2021/03/23 02:55:59;;;;;;;73.30;12.35;;;4.90;1.00;;;;;;5132809;27;20242;-66
2021/03/23 02:58:26;;;;;;;68.82;11.80;;;4.90;1.00;;;;;;5132717;27;20280;-66
2021/03/23 03:00:52;;;;;;;76.03;12.00;;;4.90;1.00;;;;;;5132680;27;20701;-66
2021/03/23 03:03:19;;;;;;;72.40;11.85;;;4.90;1.00;;;;;;5132776;27;20634;-66
2021/03/23 03:05:45;;;;;;;70.15;12.57;;;4.90;1.00;;;;;;5132720;27;20290;-66
2021/03/23 03:08:11;;;;;;;70.47;11.70;;;4.90;1.00;;;;;;5132759;27;20226;-66
2021/03/23 03:10:38;;;;;;;71.00;11.43;;;4.90;1.00;;;;;;5132857;27;20230;-66
2021/03/23 03:13:05;;;;;;;75.40;14.60;;;4.90;1.00;;;;;;5132644;27;20210;-66
2021/03/23 03:15:32;;;;;;;70.07;13.00;;;4.90;1.00;;;;;;5132629;27;20213;-66
2021/03/23 03:17:59;;;;;;;71.53;13.52;;;4.90;1.00;;;;;;5132525;27;20227;-66
2021/03/23 03:20:26;;;;;;;75.18;13.65;;;4.90;1.00;;;;;;5132373;27;20225;-66
2021/03/23 03:22:53;;;;;;;76.00;15.40;;;4.90;1.00;;;;;;5132333;27;20215;-66
2021/03/23 03:25:21;;;;;;;73.95;14.68;;;4.90;1.00;;;;;;5132551;27;20213;-66
2021/03/23 03:27:47;;;;;;;76.25;14.45;;;4.90;1.00;;;;;;5132457;27;20271;-66
2021/03/23 03:30:23;;;;;;;77.38;13.88;;;4.90;1.00;;;;;;5132497;27;20299;-66
2021/03/23 03:32:50;;;;;;;72.43;14.35;;;4.90;1.00;;;;;;5132234;27;20202;-66
2021/03/23 03:35:17;;;;;;;75.40;15.48;;;4.90;1.00;;;;;;5134673;27;20802;-66
2021/03/23 03:37:44;;;;;;;76.47;14.98;;;4.80;1.00;;;;;;5136608;27;20708;-66
2021/03/23 03:40:14;;;;;;;73.63;14.52;;;4.90;1.00;;;;;;5136737;27;20228;-66
2021/03/23 03:42:40;;;;;;;75.93;15.52;;;4.80;1.00;;;;;;5136541;27;20313;-66
2021/03/23 03:45:09;;;;;;;82.35;15.00;;;4.90;1.00;;;;;;5136453;27;20290;-66
2021/03/23 03:47:36;;;;;;;78.03;15.75;;;4.80;1.00;;;;;;5136217;27;20275;-66
2021/03/23 03:50:03;;;;;;;74.70;14.35;;;4.80;1.00;;;;;;5136264;27;20237;-66
2021/03/23 03:52:30;;;;;;;79.10;15.48;;;4.80;1.00;;;;;;5136270;27;20203;-66
2021/03/23 03:54:56;;;;;;;73.40;14.98;;;4.80;1.00;;;;;;5136407;27;20302;-66
2021/03/23 03:57:22;;;;;;;73.93;14.18;;;4.80;1.00;;;;;;5136279;27;20312;-66
2021/03/23 03:59:49;;;;;;;74.30;13.40;;;4.80;1.00;;;;;;5136008;27;20225;-66
2021/03/23 04:02:16;;;;;;;76.25;13.93;;;4.80;1.00;;;;;;5135856;27;20693;-66
2021/03/23 04:04:45;;;;;;;72.18;12.15;;;4.80;1.00;;;;;;5136302;27;20693;-65
2021/03/23 04:07:12;;;;;;;77.65;14.52;;;4.80;1.00;;;;;;5135990;27;20734;-65
2021/03/23 04:09:39;;;;;;;75.95;13.68;;;4.80;1.00;;;;;;5136175;27;20195;-66
2021/03/23 04:12:07;;;;;;;77.20;14.95;;;4.80;1.00;;;;;;5136001;27;20209;-66
2021/03/23 04:14:34;;;;;;;70.68;11.77;;;4.80;1.00;;;;;;5135884;27;20333;-66
2021/03/23 04:17:00;;;;;;;74.60;13.60;;;4.80;1.00;;;;;;5135886;27;20649;-66
2021/03/23 04:19:27;;;;;;;69.95;13.57;;;4.80;1.00;;;;;;5135704;27;20254;-65
2021/03/23 04:21:55;;;;;;;78.60;13.85;;;4.80;1.00;;;;;;5135875;27;20578;-65
2021/03/23 04:24:21;;;;;;;79.93;14.73;;;4.80;1.00;;;;;;5135923;27;20233;-66
2021/03/23 04:26:47;;;;;;;79.93;15.88;;;4.80;1.00;;;;;;5135668;27;20234;-66
2021/03/23 04:29:14;;;;;;;75.03;14.35;;;4.80;1.00;;;;;;5135498;27;20206;-66
2021/03/23 04:31:43;;;;;;;75.93;15.52;;;4.80;1.00;;;;;;5135870;27;20241;-66
2021/03/23 04:34:12;;;;;;;76.75;14.75;;;4.80;1.00;;;;;;5135367;27;20221;-66
2021/03/23 04:36:38;;;;;;;75.40;13.35;;;4.80;1.00;;;;;;5135313;27;20247;-66
2021/03/23 04:39:09;;;;;;;78.70;16.63;;;4.80;1.00;;;;;;5135364;27;20235;-66
2021/03/23 04:41:36;;;;;;;73.13;13.68;;;4.80;1.00;;;;;;5135380;27;20306;-66
2021/03/23 04:44:03;;;;;;;77.45;13.60;;;4.80;1.00;;;;;;5135128;27;20230;-66
2021/03/23 04:46:30;;;;;;;79.20;16.65;;;4.80;1.00;;;;;;5134978;27;20238;-66
2021/03/23 04:48:57;;;;;;;80.55;15.05;;;4.80;1.00;;;;;;5135261;27;20313;-66
2021/03/23 04:51:25;;;;;;;76.85;15.63;;;4.80;1.00;;;;;;5135245;27;20240;-66
2021/03/23 04:53:58;;;;;;;79.25;14.70;;;4.80;1.00;;;;;;5135193;27;20294;-66
2021/03/23 04:56:27;;;;;;;79.07;15.40;;;4.70;1.00;;;;;;5135008;27;20231;-66
2021/03/23 04:58:55;;;;;;;76.85;14.77;;;4.70;1.00;;;;;;5134811;27;20754;-66
2021/03/23 05:01:21;;;;;;;79.05;14.38;;;4.70;1.00;;;;;;5135202;27;20293;-66
2021/03/23 05:03:53;;;;;;;74.15;13.50;;;4.70;1.00;;;;;;5135026;27;20625;-66
2021/03/23 05:06:19;;;;;;;72.22;14.07;;;4.70;1.00;;;;;;5135185;27;20588;-66
2021/03/23 05:08:45;;;;;;;73.93;13.15;;;4.70;1.00;;;;;;5135135;27;20639;-66
2021/03/23 05:11:14;;;;;;;74.20;14.15;;;4.70;1.00;;;;;;5135119;27;20760;-66
2021/03/23 05:13:42;;;;;;;74.35;13.68;;;4.70;1.00;;;;;;5134943;27;20205;-65
2021/03/23 05:16:08;;;;;;;76.57;14.07;;;4.70;1.00;;;;;;5134890;27;20213;-66
2021/03/23 05:18:35;;;;;;;76.50;14.60;;;4.70;1.00;;;;;;5134657;27;20309;-66
2021/03/23 05:21:01;;;;;;;77.25;15.48;;;4.70;1.00;;;;;;5134725;27;20354;-65
2021/03/23 05:23:27;;;;;;;74.25;14.85;;;4.70;1.00;;;;;;5134357;27;20206;-66
2021/03/23 05:25:54;;;;;;;71.47;13.32;;;4.70;1.00;;;;;;5134647;27;20315;-66
2021/03/23 05:28:21;;;;;;;73.63;13.80;;;4.70;1.00;;;;;;5134619;27;20251;-66
2021/03/23 05:30:50;;;;;;;77.28;16.70;;;4.70;1.00;;;;;;5134501;27;20209;-67
2021/03/23 05:33:19;;;;;;;77.15;14.13;;;4.70;1.00;;;;;;5134367;27;20210;-66
2021/03/23 05:35:45;;;;;;;76.15;13.30;;;4.70;1.00;;;;;;5134259;27;20242;-66
2021/03/23 05:38:12;;;;;;;75.95;15.40;;;4.70;1.00;;;;;;5134108;27;20230;-66
2021/03/23 05:40:41;;;;;;;74.18;14.05;;;4.70;1.00;;;;;;5134414;27;20230;-67
2021/03/23 05:43:27;;;;;;;73.60;14.43;;;4.70;1.00;;;;;;5134486;27;20636;-66
2021/03/23 05:45:58;;;;;;;74.38;14.10;;;4.70;1.00;;;;;;5134166;27;20206;-66
2021/03/23 05:48:26;;;;;;;76.20;15.13;;;4.70;1.00;;;;;;5133850;27;20758;-66
2021/03/23 05:51:03;;;;;;;79.15;16.35;;;4.70;1.00;;;;;;5134329;27;20301;-66
2021/03/23 05:53:38;;;;;;;73.15;14.27;;;4.70;1.00;;;;;;5134056;27;20682;-66
2021/03/23 05:56:05;;;;;;;81.80;15.50;;;4.80;1.00;;;;;;5134375;27;20627;-66
2021/03/23 05:58:35;;;;;;;76.70;14.48;;;4.80;1.00;;;;;;5132946;27;20271;-66
2021/03/23 06:01:08;;;;;;;81.55;15.75;;;4.80;1.00;;;;;;5133843;27;20762;-66
2021/03/23 06:03:41;;;;;;;81.28;15.93;;;4.80;1.00;;;;;;5133874;27;20289;-66
2021/03/23 06:06:20;;;;;;;83.15;15.75;;;4.80;1.00;;;;;;5133936;27;20206;-66
2021/03/23 06:08:50;;;;;;;79.05;14.75;;;4.80;1.00;;;;;;5133690;27;20305;-66
2021/03/23 06:11:46;;;;;;;75.13;15.18;;;4.90;1.00;;;;;;5133626;27;20297;-67
2021/03/23 06:14:39;;;;;;;84.53;15.63;;;4.90;1.00;;;;;;5130835;27;20207;-66
2021/03/23 06:17:12;;;;;;;79.93;15.75;;;4.90;1.00;;;;;;5130859;27;20227;-66
2021/03/23 06:19:45;;;;;;;77.68;15.15;;;5.00;1.00;;;;;;5133256;27;20229;-66
2021/03/23 06:22:30;;;;;;;81.07;15.95;;;5.10;1.00;;;;;;5133474;27;20238;-67
2021/03/23 06:25:03;;;;;;;76.78;15.25;;;5.10;1.00;;;;;;5133449;27;20273;-66
2021/03/23 06:27:36;;;;;;;81.18;16.35;;;5.10;1.00;;;;;;5133433;27;20330;-67
2021/03/23 06:30:37;;;;;;;79.32;16.27;;;5.20;1.00;;;;;;5133769;27;20204;-66
2021/03/23 06:33:08;;;;;;;79.15;16.27;;;5.30;1.00;;;;;;5133069;27;20221;-66
2021/03/23 06:35:41;;;;;;;77.57;14.93;;;5.30;1.00;;;;;;5133148;27;20214;-66
2021/03/23 06:38:19;;;;;;;74.35;15.15;;;5.30;1.00;;;;;;5133104;27;20233;-66
2021/03/23 06:41:14;;;;;;;76.88;14.52;;;5.40;1.00;;;;;;5133087;27;20234;-67
2021/03/23 06:43:43;;;;;;;80.22;16.20;;;5.50;1.00;;;;;;5132841;27;20202;-66
2021/03/23 06:46:24;;;;;;;80.80;15.25;;;5.50;1.00;;;;;;5133113;27;20585;-66
2021/03/23 06:49:26;;;;;;;78.95;14.75;;;5.60;1.00;;;;;;5132647;27;20222;-66
2021/03/23 06:52:17;;;;;;;75.20;13.70;;;5.70;1.00;;;;;;5132739;27;20669;-66
2021/03/23 06:54:44;;;;;;;78.18;14.50;;;5.80;1.00;;;;;;5133152;27;20302;-66
2021/03/23 06:57:18;;;;;;;74.20;13.25;;;5.90;1.00;;;;;;5132572;27;20235;-66
2021/03/23 06:59:52;;;;;;;76.90;14.07;;;6.00;1.00;;;;;;5132897;27;20592;-66
2021/03/23 07:02:30;;;;;;;79.07;16.20;;;6.00;1.00;;;;;;5132553;27;20203;-66
2021/03/23 07:05:23;;;;;;;74.95;14.70;;;6.10;1.00;;;;;;5133033;27;20661;-66
2021/03/23 07:07:51;;;;;;;74.15;14.48;;;6.10;1.00;;;;;;5132282;27;20280;-67
2021/03/23 07:10:22;;;;;;;80.75;14.63;;;6.20;1.00;;;;;;5133008;27;20226;-66
2021/03/23 07:12:50;;;;;;;82.85;17.45;;;6.20;1.00;;;;;;5132635;27;20578;-66
2021/03/23 07:15:19;;;;;;;75.65;15.63;;;6.30;1.00;;;;;;5132520;27;20200;-66
2021/03/23 07:17:47;;;;;;;82.65;15.93;;;6.30;1.00;;;;;;5132396;27;20710;-66
2021/03/23 07:20:36;;;;;;;73.95;14.77;;;6.40;1.00;;;;;;5132266;27;20314;-66
2021/03/23 07:23:20;;;;;;;79.97;15.70;;;6.50;1.00;;;;;;5132536;27;20588;-66
2021/03/23 07:25:46;;;;;;;81.28;15.50;;;6.60;1.00;;;;;;5132336;27;20791;-66
2021/03/23 07:28:26;;;;;;;77.45;16.90;;;6.70;1.00;;;;;;5132315;27;20231;-66
2021/03/23 07:31:01;;;;;;;81.72;17.83;;;6.70;1.00;;;;;;5132705;27;20280;-66
2021/03/23 07:33:50;;;;;;;83.10;18.45;;;6.80;1.00;;;;;;5132477;27;20298;-66
2021/03/23 07:36:23;;;;;;;82.43;17.13;;;6.80;1.00;;;;;;5129504;27;20292;-66
2021/03/23 07:38:53;;;;;;;81.85;16.73;;;6.90;1.00;;;;;;5132061;27;20218;-66
2021/03/23 07:41:24;;;;;;;83.18;18.52;;;7.00;1.00;;;;;;5132316;27;20203;-66
2021/03/23 07:43:55;;;;;;;84.18;18.38;;;7.10;1.00;;;;;;5132377;27;20289;-66
2021/03/23 07:46:27;;;;;;;79.28;18.45;;;7.10;1.00;;;;;;5132213;27;20220;-67
2021/03/23 07:48:59;;;;;;;86.82;19.73;;;7.20;1.00;;;;;;5132171;27;20224;-66
2021/03/23 07:51:35;;;;;;;85.22;17.65;;;7.30;1.00;;;;;;5131982;27;20207;-66
2021/03/23 07:54:26;;;;;;;84.07;17.60;;;7.30;1.00;;;;;;5132190;27;20208;-66
2021/03/23 07:57:04;;;;;;;78.75;17.05;;;7.40;1.00;;;;;;5132198;27;20253;-66
2021/03/23 08:00:02;;;;;;;81.88;17.88;;;7.60;1.00;;;;;;5131979;27;20223;-67
2021/03/23 08:03:06;;;;;;;84.17;19.27;;;7.70;1.00;;;;;;5132198;27;20583;-66
2021/03/23 08:05:39;;;;;;;80.88;18.27;;;7.80;1.00;;;;;;5105531;27;20537;-65
2021/03/23 08:08:45;;;;;;;81.57;18.27;;;7.90;1.00;;;;;;5132390;27;20227;-66
2021/03/23 08:11:26;;;;;;;77.80;17.00;;;8.00;1.00;;;;;;5123016;27;20209;-66
2021/03/23 08:14:15;;;;;;;85.87;19.97;;;8.00;1.00;;;;;;5131866;27;20480;-66
2021/03/23 08:17:02;;;;;;;86.63;20.02;;;8.20;1.00;;;;;;5132161;27;20439;-66
2021/03/23 08:19:39;;;;;;;81.25;19.95;;;8.40;1.00;;;;;;5131969;27;20315;-66
2021/03/23 08:22:38;;;;;;;83.47;19.10;;;8.40;1.00;;;;;;5135418;27;20299;-67
2021/03/23 08:25:14;;;;;;;86.70;19.40;;;8.50;1.00;;;;;;5135489;27;20437;-66
2021/03/23 08:28:10;;;;;;;82.20;20.00;;;8.50;1.00;;;;;;5135607;27;21006;-66
2021/03/23 08:30:47;;;;;;;85.50;20.70;;;8.60;1.00;;;;;;5135776;27;20447;-66
2021/03/23 08:33:31;;;;;;;87.77;21.47;;;8.70;1.00;;;;;;5135253;27;20447;-66
2021/03/23 08:36:10;;;;;;;85.83;22.53;;;8.80;1.00;;;;;;5135309;27;20451;-66
2021/03/23 08:38:51;;;;;;;83.67;20.07;;;9.00;1.00;;;;;;5135497;27;20458;-67
2021/03/23 08:41:25;;;;;;;90.20;20.30;;;9.10;1.00;;;;;;5135314;27;20533;-66
2021/03/23 08:43:52;;;;;;;87.90;20.10;;;9.30;1.00;;;;;;5135131;27;20443;-67
2021/03/23 08:46:21;;;;;;;82.33;19.47;;;9.40;1.00;;;;;;5135238;27;20447;-66
2021/03/23 08:48:52;;;;;;;78.90;18.70;;;9.50;1.00;;;;;;5135286;27;20466;-66
2021/03/23 08:51:22;;;;;;;82.07;19.37;;;9.60;1.00;;;;;;5135137;27;20547;-66
2021/03/23 08:53:56;;;;;;;82.50;19.93;;;9.60;1.00;;;;;;5134917;27;20450;-66
2021/03/23 08:56:58;;;;;;;81.83;19.73;;;9.60;1.00;;;;;;5135318;27;20466;-66
2021/03/23 08:59:49;;;;;;;79.40;18.60;;;9.60;1.00;;;;;;5134922;27;20584;-66
2021/03/23 09:02:47;;;;;;;77.50;17.30;;;9.70;1.00;;;;;;5134715;27;20951;-66
2021/03/23 09:05:39;;;;;;;84.13;17.97;;;9.60;1.00;;;;;;5134861;27;20799;-66
2021/03/23 09:08:36;;;;;;;80.37;19.00;;;9.60;1.00;;;;;;5132140;27;20500;-66
2021/03/23 09:11:06;;;;;;;77.30;18.30;;;9.70;1.00;;;;;;5134827;27;20448;-66
2021/03/23 09:14:26;;;;;;;76.93;16.77;;;9.70;1.00;;;;;;5134899;27;20504;-66
2021/03/23 09:17:14;;;;;;;79.60;17.47;;;9.90;1.00;;;;;;5071019;28;20504;-66
2021/03/23 09:19:49;;;;;;;80.00;16.67;;;9.90;1.00;;;;;;5071017;28;20490;-66
2021/03/23 09:22:35;;;;;;;82.10;18.17;;;10.00;1.00;;;;;;5120984;27;20477;-66
2021/03/23 09:25:41;;;;;;;81.57;18.93;;;10.00;1.00;;;;;;5134400;27;20440;-67
2021/03/23 09:28:09;;;;;;;82.20;20.03;;;10.00;1.00;;;;;;5134588;27;20552;-66
2021/03/23 09:30:54;;;;;;;77.80;18.20;;;10.20;1.00;;;;;;5134559;27;20471;-67
2021/03/23 09:33:42;;;;;;;82.07;19.03;;;10.30;1.00;;;;;;5134204;27;21086;-66
2021/03/23 09:36:47;;;;;;;80.93;18.40;;;10.40;1.00;;;;;;5134273;27;20455;-66
2021/03/23 09:39:46;;;;;;;75.17;15.50;;;10.60;1.00;;;;;;5134176;27;20483;-67
2021/03/23 09:42:36;;;;;;;75.87;15.13;;;10.70;1.00;;;;;;5134300;27;20588;-66
2021/03/23 09:45:27;;;;;;;69.90;12.80;;;10.80;1.00;;;;;;5134220;27;20447;-66
2021/03/23 09:48:03;;;;;;;71.10;11.33;;;10.90;1.00;;;;;;5134000;27;20472;-66
2021/03/23 09:50:43;;;;;;;66.30;10.23;;;11.20;1.00;;;;;;5134172;27;20435;-67
2021/03/23 09:53:22;;;;;;;69.27;12.30;;;11.50;1.00;;;;;;5133862;27;21007;-67
2021/03/23 09:55:48;;;;;;;69.20;13.30;;;11.80;1.00;;;;;;5134360;27;20462;-66
2021/03/23 09:58:24;;;;;;;70.10;13.30;;;12.00;1.00;;;;;;5133714;27;20460;-65
2021/03/23 10:00:51;;;;;;;70.73;12.97;;;12.20;1.00;;;;;;5134145;27;20567;-66
2021/03/23 10:03:22;;;;;;;70.07;14.03;;;12.40;1.00;;;;;;5133908;27;20531;-66
2021/03/23 10:06:01;;;;;;;74.37;14.33;;;12.50;1.00;;;;;;5134010;27;20440;-66
2021/03/23 10:08:32;;;;;;;68.93;13.10;;;12.60;1.00;;;;;;5133597;27;20471;-66
2021/03/23 10:11:07;;;;;;;71.97;13.80;;;12.80;1.00;;;;;;5133625;27;20455;-66
2021/03/23 10:13:33;;;;;;;70.70;13.73;;;12.80;1.00;;;;;;5133593;27;20549;-66
2021/03/23 10:16:06;;;;;;;72.87;12.97;;;12.80;1.00;;;;;;5133488;27;20452;-66
2021/03/23 10:18:37;;;;;;;70.40;13.60;;;12.90;1.00;;;;;;5133382;27;20464;-66
2021/03/23 10:21:07;;;;;;;74.20;13.57;;;12.90;1.00;;;;;;5133399;27;20553;-66
2021/03/23 10:23:41;;;;;;;72.47;12.70;;;12.80;1.00;;;;;;5133216;27;20861;-66
2021/03/23 10:26:08;;;;;;;67.00;10.93;;;12.80;1.00;;;;;;5133498;27;20936;-66
2021/03/23 10:28:38;;;;;;;70.53;10.83;;;13.00;1.00;;;;;;5133358;27;20461;-66
2021/03/23 10:31:07;;;;;;;67.60;11.43;;;13.20;1.00;;;;;;5133382;27;20555;-66
2021/03/23 10:33:36;;;;;;;70.20;11.50;;;13.40;1.00;;;;;;5133038;27;20536;-66
2021/03/23 10:36:06;;;;;;;70.40;11.90;;;13.40;1.00;;;;;;5132816;27;20553;-66
2021/03/23 10:38:40;;;;;;;68.80;12.50;;;13.30;1.00;;;;;;5133095;27;20496;-66
2021/03/23 10:41:26;;;;;;;66.70;10.77;;;13.00;1.00;;;;;;5133370;27;20484;-66
2021/03/23 10:44:10;;;;;;;66.67;10.10;;;12.60;1.00;;;;;;5132436;27;20509;-66
2021/03/23 10:46:41;;;;;;;69.03;12.07;;;12.20;1.00;;;;;;5133103;27;20448;-66
2021/03/23 10:49:15;;;;;;;70.60;10.90;;;11.80;1.00;;;;;;5133062;27;20480;-66
2021/03/23 10:51:45;;;;;;;65.80;10.13;;;11.60;1.00;;;;;;5132845;27;20447;-66
2021/03/23 10:54:22;;;;;;;68.47;11.50;;;11.40;1.00;;;;;;5132818;27;20489;-66
2021/03/23 10:56:51;;;;;;;70.30;10.87;;;11.30;1.00;;;;;;5132605;27;20448;-66
2021/03/23 10:59:30;;;;;;;68.60;10.53;;;11.20;1.00;;;;;;5132888;27;20476;-66
2021/03/23 11:02:15;;;;;;;68.83;10.50;;;11.10;1.00;;;;;;5132852;27;20802;-66
2021/03/23 11:04:58;;;;;;;69.80;10.13;;;11.00;1.00;;;;;;5132796;27;20447;-66
2021/03/23 11:07:29;;;;;;;67.70;9.13;;;10.80;1.00;;;;;;5132534;27;20547;-66
2021/03/23 11:09:59;;;;;;;68.57;10.97;;;10.70;1.00;;;;;;5132665;27;20444;-66
2021/03/23 11:12:26;;;;;;;70.27;11.93;;;10.60;1.00;;;;;;5132701;27;20444;-66
2021/03/23 11:14:53;;;;;;;68.10;10.60;;;10.60;1.00;;;;;;5132425;27;20451;-66
2021/03/23 11:17:21;;;;;;;70.73;11.57;;;10.70;1.00;;;;;;5132479;27;20468;-66
2021/03/23 11:19:50;;;;;;;68.30;11.37;;;10.70;1.00;;;;;;5132188;27;20487;-66
2021/03/23 11:22:20;;;;;;;67.77;10.70;;;10.80;1.00;;;;;;5132292;27;20444;-66
2021/03/23 11:24:48;;;;;;;72.80;11.53;;;10.90;1.00;;;;;;5132508;27;20530;-66
2021/03/23 11:27:14;;;;;;;67.20;11.40;;;11.00;1.00;;;;;;5132378;27;20922;-66
2021/03/23 11:29:40;;;;;;;68.43;11.10;;;11.10;1.00;;;;;;5132392;27;20538;-66
2021/03/23 11:32:07;;;;;;;69.47;11.33;;;11.00;1.00;;;;;;5132099;27;20449;-66
2021/03/23 11:34:34;;;;;;;67.63;11.47;;;11.00;1.00;;;;;;5132173;27;21012;-66
2021/03/23 11:37:00;;;;;;;67.50;11.17;;;11.00;1.00;;;;;;5132395;27;20920;-66
2021/03/23 11:39:26;;;;;;;69.27;11.27;;;11.00;1.00;;;;;;5132136;27;20514;-66
2021/03/23 11:42:07;;;;;;;71.10;11.83;;;11.00;1.00;;;;;;5132228;27;20445;-66
2021/03/23 11:44:36;;;;;;;70.10;13.20;;;11.00;1.00;;;;;;5132133;27;20473;-66
2021/03/23 11:47:12;;;;;;;73.27;12.17;;;11.00;1.00;;;;;;5132069;27;20547;-66
2021/03/23 11:49:48;;;;;;;69.37;12.90;;;11.10;1.00;;;;;;5132182;27;20436;-66
2021/03/23 11:52:16;;;;;;;69.10;12.00;;;11.10;1.00;;;;;;5132233;27;20447;-66
2021/03/23 11:54:42;;;;;;;69.87;12.13;;;11.10;1.00;;;;;;5132129;27;20528;-66
2021/03/23 11:57:11;;;;;;;69.60;12.73;;;10.90;1.00;;;;;;5136008;27;20492;-66
2021/03/23 11:59:38;;;;;;;73.60;12.90;;;10.80;1.00;;;;;;5136248;27;20494;-66
2021/03/23 12:02:06;;;;;;;73.90;13.43;;;10.80;1.00;;;;;;5136286;27;20523;-66
2021/03/23 12:04:32;;;;;;;71.53;14.00;;;10.80;1.00;;;;;;5136212;27;20894;-66
2021/03/23 12:07:07;;;;;;;75.47;15.30;;;10.80;1.00;;;;;;5136166;27;20527;-66
2021/03/23 12:09:40;;;;;;;74.60;14.90;;;10.90;1.00;;;;;;5136039;27;20538;-66
2021/03/23 12:12:15;;;;;;;73.70;14.70;;;10.90;1.00;;;;;;5136163;27;20472;-66
2021/03/23 12:14:49;;;;;;;71.90;12.83;;;11.00;1.00;;;;;;5136030;27;20443;-66
2021/03/23 12:17:17;;;;;;;71.70;14.03;;;11.20;1.00;;;;;;5135861;27;20467;-66
2021/03/23 12:19:48;;;;;;;71.20;12.60;;;11.30;1.00;;;;;;5135988;27;20702;-66
2021/03/23 12:22:14;;;;;;;72.67;13.63;;;11.50;1.00;;;;;;5135573;27;20455;-66
2021/03/23 12:24:41;;;;;;;73.33;13.60;;;11.70;1.00;;;;;;5135997;27;20539;-66
2021/03/23 12:27:09;;;;;;;68.97;12.57;;;11.90;1.00;;;;;;5135565;27;20462;-66
2021/03/23 12:29:38;;;;;;;74.97;14.00;;;12.00;1.00;;;;;;5135675;27;20956;-66
2021/03/23 12:32:06;;;;;;;69.90;12.93;;;12.10;1.00;;;;;;5135435;27;20931;-66
2021/03/23 12:34:32;;;;;;;72.77;14.13;;;12.00;1.00;;;;;;5135322;27;20501;-66
2021/03/23 12:36:58;;;;;;;73.50;14.60;;;12.00;1.00;;;;;;5135440;27;20858;-67
2021/03/23 12:39:25;;;;;;;73.70;14.47;;;12.00;1.00;;;;;;5135492;27;20864;-66
2021/03/23 12:41:51;;;;;;;80.33;16.30;;;12.10;1.00;;;;;;5135507;27;20543;-66
2021/03/23 12:44:18;;;;;;;72.77;13.83;;;12.10;1.00;;;;;;5135473;27;21004;-67
2021/03/23 12:46:46;;;;;;;76.00;13.60;;;12.20;1.00;;;;;;5135287;27;20445;-67
2021/03/23 12:49:12;;;;;;;72.07;14.33;;;12.10;1.00;;;;;;5135194;27;20490;-67
2021/03/23 12:51:42;;;;;;;73.53;13.73;;;12.10;1.00;;;;;;5135531;27;20491;-67
2021/03/23 12:54:15;;;;;;;75.43;16.90;;;12.10;1.00;;;;;;5135305;27;20480;-67
2021/03/23 12:56:42;;;;;;;71.40;14.07;;;12.00;1.00;;;;;;5135183;27;20448;-67
2021/03/23 12:59:10;;;;;;;70.07;13.20;;;12.10;1.00;;;;;;5135039;27;20477;-67
2021/03/23 13:01:36;;;;;;;75.33;13.87;;;12.20;1.00;;;;;;5135589;27;20476;-67
2021/03/23 13:04:04;;;;;;;71.50;13.57;;;12.30;1.00;;;;;;5135000;27;20483;-67
2021/03/23 13:06:31;;;;;;;69.67;13.40;;;12.20;1.00;;;;;;5134505;27;20535;-67
2021/03/23 13:08:58;;;;;;;72.27;14.97;;;12.20;1.00;;;;;;5134971;27;20844;-67
2021/03/23 13:11:27;;;;;;;70.50;13.70;;;12.30;1.00;;;;;;5135007;27;20452;-67